Time;durP1;ratioP1;P1;durP2;ratioP2;P2;SDS_P1;SDS_P2;PMS_P1;PMS_P2;Temp;Humidity;BMP_temperature;BMP_pressure;BME280_temperature;BME280_humidity;BME280_pressure;Samples;Min_cycle;Max_cycle;Signal;HPM_P1;HPM_P2
2023/11/16 00:01:02;;;;;;;9.83;6.42;;;;;;;8.52;100.00;99183.28;1697113;84;21114;-66
2023/11/16 00:03:31;;;;;;;11.88;7.65;;;;;;;8.54;100.00;99190.73;1696994;84;21103;-65
2023/11/16 00:06:00;;;;;;;10.40;7.08;;;;;;;8.54;100.00;99193.47;1697163;84;21026;-67
2023/11/16 00:08:29;;;;;;;9.85;6.83;;;;;;;8.55;100.00;99192.41;1697042;84;21544;-65
2023/11/16 00:11:00;;;;;;;11.63;6.62;;;;;;;8.55;100.00;99193.78;1697231;84;21062;-65
2023/11/16 00:13:28;;;;;;;10.72;6.40;;;;;;;8.56;100.00;99193.25;1696947;84;21524;-66
2023/11/16 00:15:58;;;;;;;9.85;6.10;;;;;;;8.57;100.00;99199.86;1697320;84;21149;-66
2023/11/16 00:18:27;;;;;;;11.95;7.05;;;;;;;8.57;100.00;99199.02;1697028;83;21007;-66
2023/11/16 00:20:56;;;;;;;9.20;6.37;;;;;;;8.55;100.00;99197.88;1697154;84;21082;-66
2023/11/16 00:23:25;;;;;;;11.95;7.53;;;;;;;8.53;100.00;99193.16;1697053;84;21069;-66
2023/11/16 00:25:55;;;;;;;12.78;7.90;;;;;;;8.51;100.00;99197.98;1697166;84;21125;-66
2023/11/16 00:28:26;;;;;;;15.03;8.30;;;;;;;8.52;100.00;99188.75;1697172;84;21077;-65
2023/11/16 00:30:54;;;;;;;10.60;7.92;;;;;;;8.53;100.00;99190.42;1697194;84;21066;-64
2023/11/16 00:33:23;;;;;;;16.37;8.00;;;;;;;8.53;100.00;99190.95;1697099;84;21105;-66
2023/11/16 00:35:55;;;;;;;12.53;6.55;;;;;;;8.50;100.00;99194.95;1697072;84;21121;-66
2023/11/16 00:38:27;;;;;;;9.63;6.70;;;;;;;8.50;100.00;99200.94;1697096;83;21034;-65
2023/11/16 00:40:55;;;;;;;9.93;6.15;;;;;;;8.49;100.00;99197.36;1696956;84;21086;-66
2023/11/16 00:43:27;;;;;;;10.25;6.28;;;;;;;8.46;100.00;99196.42;1671672;84;21046;-67
2023/11/16 00:45:55;;;;;;;10.82;7.20;;;;;;;8.46;100.00;99193.70;1697130;84;21435;-65
2023/11/16 00:48:25;;;;;;;11.70;6.28;;;;;;;8.44;100.00;99194.41;1697016;84;21081;-64
2023/11/16 00:50:55;;;;;;;10.48;6.75;;;;;;;8.44;100.00;99197.13;1697237;84;21466;-65
2023/11/16 00:53:25;;;;;;;7.85;5.95;;;;;;;8.40;100.00;99199.98;1697000;84;21042;-65
2023/11/16 00:55:53;;;;;;;15.50;7.87;;;;;;;8.40;100.00;99199.98;1696997;84;21022;-67
2023/11/16 00:58:21;;;;;;;13.80;6.50;;;;;;;8.40;100.00;99209.53;1697024;84;21536;-65
2023/11/16 01:00:51;;;;;;;8.95;6.12;;;;;;;8.41;100.00;99206.27;1697006;84;21510;-65
2023/11/16 01:03:20;;;;;;;11.73;6.12;;;;;;;8.41;100.00;99206.27;1697246;84;21023;-65
2023/11/16 01:05:49;;;;;;;10.68;6.08;;;;;;;8.41;100.00;99205.75;1696953;84;21193;-66
2023/11/16 01:08:21;;;;;;;9.78;5.97;;;;;;;8.42;100.00;99212.89;1697142;84;21057;-64
2023/11/16 01:10:49;;;;;;;10.13;6.92;;;;;;;8.43;100.00;99207.73;1697143;84;21074;-65
2023/11/16 01:13:28;;;;;;;9.00;6.50;;;;;;;8.44;100.00;99205.33;1697078;84;21059;-64
2023/11/16 01:15:52;;;;;;;11.15;5.70;;;;;;;8.46;100.00;99205.14;1695896;84;21038;-66
2023/11/16 01:18:26;;;;;;;8.38;6.47;;;;;;;8.45;100.00;99206.16;1696989;84;21511;-67
2023/11/16 01:20:57;;;;;;;8.60;5.85;;;;;;;8.46;100.00;99215.53;1696640;84;21066;-66
2023/11/16 01:23:24;;;;;;;10.25;6.42;;;;;;;8.46;100.00;99212.80;1697118;83;21635;-66
2023/11/16 01:25:54;;;;;;;11.75;6.42;;;;;;;8.47;100.00;99215.01;1696904;84;21022;-66
2023/11/16 01:28:26;;;;;;;13.75;7.45;;;;;;;8.47;100.00;99212.28;1696820;84;21014;-65
2023/11/16 01:30:56;;;;;;;9.78;6.78;;;;;;;8.48;100.00;99217.52;1672106;84;21073;-65
2023/11/16 01:33:24;;;;;;;11.05;6.70;;;;;;;8.49;100.00;99223.83;1696781;84;21046;-67
2023/11/16 01:35:54;;;;;;;10.00;6.80;;;;;;;8.51;100.00;99216.26;1696934;84;20995;-66
2023/11/16 01:38:23;;;;;;;11.10;6.70;;;;;;;8.51;100.00;99221.19;1697265;84;21074;-65
2023/11/16 01:40:51;;;;;;;10.98;6.50;;;;;;;8.49;100.00;99213.74;1697174;84;21066;-66
2023/11/16 01:43:22;;;;;;;8.70;6.20;;;;;;;8.48;100.00;99221.62;1696893;84;21070;-65
2023/11/16 01:45:51;;;;;;;8.45;5.55;;;;;;;8.48;100.00;99219.41;1697184;84;21077;-67
2023/11/16 01:48:23;;;;;;;10.50;6.80;;;;;;;8.49;100.00;99211.54;1696920;84;21534;-66
2023/11/16 01:50:52;;;;;;;8.38;5.90;;;;;;;8.49;100.00;99213.74;1694690;84;21062;-66
2023/11/16 01:53:22;;;;;;;8.93;5.60;;;;;;;8.47;100.00;99218.58;1696936;84;21524;-69
2023/11/16 01:55:51;;;;;;;9.40;5.42;;;;;;;8.47;100.00;99209.02;1697011;84;21457;-65
2023/11/16 01:58:20;;;;;;;7.30;5.83;;;;;;;8.49;100.00;99215.11;1696869;84;21038;-68
2023/11/16 02:00:49;;;;;;;7.55;5.72;;;;;;;8.49;100.00;99206.92;1697132;83;21034;-64
2023/11/16 02:03:18;;;;;;;7.60;5.53;;;;;;;8.49;100.00;99211.54;1671890;84;21473;-65
2023/11/16 02:05:46;;;;;;;8.83;5.65;;;;;;;8.48;100.00;99207.13;1696999;84;21037;-65
2023/11/16 02:08:15;;;;;;;7.08;4.60;;;;;;;8.48;100.00;99209.33;1671668;84;21105;-65
2023/11/16 02:10:44;;;;;;;6.08;4.78;;;;;;;8.46;100.00;99205.98;1696950;84;21098;-65
2023/11/16 02:13:21;;;;;;;7.70;4.80;;;;;;;8.44;100.00;99207.22;1696812;84;21050;-65
2023/11/16 02:15:55;;;;;;;7.40;5.00;;;;;;;8.46;100.00;99213.33;1697048;84;21007;-66
2023/11/16 02:18:25;;;;;;;8.78;5.30;;;;;;;8.44;100.00;99214.88;1697206;84;21038;-66
2023/11/16 02:20:54;;;;;;;10.38;4.85;;;;;;;8.46;100.00;99215.53;1697067;84;21465;-65
2023/11/16 02:23:24;;;;;;;8.25;5.33;;;;;;;8.46;100.00;99214.17;1696938;84;21034;-65
2023/11/16 02:25:56;;;;;;;8.10;5.00;;;;;;;8.48;100.00;99219.41;1696964;84;21038;-64
2023/11/16 02:28:27;;;;;;;10.70;4.95;;;;;;;8.49;100.00;99221.94;1697256;84;21548;-66
2023/11/16 02:30:57;;;;;;;8.63;4.65;;;;;;;8.48;100.00;99223.51;1696972;84;21026;-64
2023/11/16 02:33:27;;;;;;;7.78;4.90;;;;;;;8.46;100.00;99225.09;1697142;84;21022;-64
2023/11/16 02:35:57;;;;;;;10.13;4.92;;;;;;;8.46;100.00;99223.72;1696988;84;21014;-65
2023/11/16 02:38:26;;;;;;;9.48;4.47;;;;;;;8.46;100.00;99222.88;1697007;84;21106;-65
2023/11/16 02:40:54;;;;;;;6.62;4.78;;;;;;;8.45;100.00;99227.50;1697179;84;21061;-66
2023/11/16 02:43:24;;;;;;;7.78;5.30;;;;;;;8.47;100.00;99228.66;1696939;84;20994;-66
2023/11/16 02:45:53;;;;;;;6.62;4.85;;;;;;;8.47;100.00;99226.77;1696993;84;21058;-65
2023/11/16 02:48:24;;;;;;;6.10;4.35;;;;;;;8.47;100.00;99236.31;1697027;83;21129;-65
2023/11/16 02:50:53;;;;;;;7.40;4.58;;;;;;;8.50;100.00;99233.69;1697072;84;21046;-66
2023/11/16 02:53:22;;;;;;;8.45;5.70;;;;;;;8.51;100.00;99240.30;1697009;84;21075;-67
2023/11/16 02:55:50;;;;;;;8.78;5.45;;;;;;;8.52;100.00;99237.88;1697121;84;21073;-64
2023/11/16 02:58:19;;;;;;;7.42;4.60;;;;;;;8.53;100.00;99238.20;1697240;83;21019;-66
2023/11/16 03:00:48;;;;;;;7.60;4.97;;;;;;;8.55;100.00;99237.45;1697038;84;21062;-65
2023/11/16 03:03:17;;;;;;;9.38;4.72;;;;;;;8.54;100.00;99234.41;1697067;84;21442;-65
2023/11/16 03:05:47;;;;;;;8.80;4.80;;;;;;;8.54;100.00;99244.50;1697179;84;21030;-65
2023/11/16 03:08:17;;;;;;;9.60;5.87;;;;;;;8.53;100.00;99238.20;1697258;84;21165;-65
2023/11/16 03:10:47;;;;;;;8.98;5.42;;;;;;;8.54;100.00;99245.86;1697014;84;21265;-65
2023/11/16 03:13:17;;;;;;;8.10;4.72;;;;;;;8.51;100.00;99250.38;1697274;84;21054;-64
2023/11/16 03:15:48;;;;;;;7.70;4.87;;;;;;;8.50;100.00;99256.89;1697146;84;21034;-65
2023/11/16 03:18:18;;;;;;;6.92;4.47;;;;;;;8.49;100.00;99260.67;1696991;84;21050;-66
2023/11/16 03:20:47;;;;;;;6.33;4.25;;;;;;;8.49;100.00;99257.94;1696952;84;21165;-64
2023/11/16 03:23:16;;;;;;;9.95;4.42;;;;;;;8.47;100.00;99256.79;1697013;84;21030;-65
2023/11/16 03:25:45;;;;;;;6.15;3.77;;;;;;;8.47;100.00;99266.34;1697126;84;21332;-65
2023/11/16 03:28:14;;;;;;;9.70;3.83;;;;;;;8.46;100.00;99267.92;1697009;84;21105;-66
2023/11/16 03:30:43;;;;;;;6.58;4.22;;;;;;;8.46;100.00;99268.76;1696989;84;21050;-66
2023/11/16 03:33:12;;;;;;;6.67;4.00;;;;;;;8.47;100.00;99273.17;1697127;84;21089;-66
2023/11/16 03:35:48;;;;;;;5.05;3.77;;;;;;;8.47;100.00;99273.69;1696717;84;21022;-67
2023/11/16 03:38:11;;;;;;;7.60;4.03;;;;;;;8.47;100.00;99271.80;1696282;84;21026;-65
2023/11/16 03:40:42;;;;;;;5.47;3.42;;;;;;;8.44;100.00;99264.00;1696972;84;21019;-64
2023/11/16 03:43:13;;;;;;;6.67;3.83;;;;;;;8.43;100.00;99266.42;1697208;84;21070;-64
2023/11/16 03:45:41;;;;;;;5.67;3.83;;;;;;;8.39;100.00;99269.27;1696998;84;21077;-67
2023/11/16 03:48:11;;;;;;;6.47;3.90;;;;;;;8.37;100.00;99270.52;1696997;84;21023;-65
2023/11/16 03:50:40;;;;;;;5.72;3.95;;;;;;;8.35;100.00;99268.00;1672308;84;21051;-65
2023/11/16 03:53:10;;;;;;;5.65;3.75;;;;;;;8.36;100.00;99268.32;1696933;84;21042;-65
2023/11/16 03:55:39;;;;;;;4.80;3.77;;;;;;;8.37;100.00;99265.06;1696836;84;21052;-64
2023/11/16 03:58:08;;;;;;;7.00;3.75;;;;;;;8.39;100.00;99269.78;1696986;84;21011;-66
2023/11/16 04:00:37;;;;;;;6.60;4.15;;;;;;;8.39;100.00;99273.36;1671966;84;21039;-65
2023/11/16 04:03:05;;;;;;;5.53;4.03;;;;;;;8.38;100.00;99277.66;1696995;83;21039;-65
2023/11/16 04:05:34;;;;;;;5.62;3.83;;;;;;;8.39;100.00;99278.81;1696853;83;21058;-65
2023/11/16 04:08:06;;;;;;;7.50;4.62;;;;;;;8.38;100.00;99279.86;1696795;84;21535;-65
2023/11/16 04:10:34;;;;;;;7.90;5.17;;;;;;;8.37;100.00;99289.10;1697275;83;21045;-64
2023/11/16 04:13:03;;;;;;;9.63;6.00;;;;;;;8.36;100.00;99285.22;1671754;84;21054;-62
2023/11/16 04:15:32;;;;;;;12.63;7.70;;;;;;;8.36;100.00;99285.22;1696928;84;21145;-64
2023/11/16 04:18:03;;;;;;;13.28;7.15;;;;;;;8.37;100.00;99286.38;1671267;84;21038;-64
2023/11/16 04:20:35;;;;;;;13.50;8.45;;;;;;;8.37;100.00;99293.72;1697205;84;21026;-65
2023/11/16 04:23:03;;;;;;;13.98;8.13;;;;;;;8.35;100.00;99290.36;1697002;84;21112;-65
2023/11/16 04:25:33;;;;;;;14.90;8.28;;;;;;;8.34;100.00;99289.52;1696985;84;21023;-65
2023/11/16 04:28:05;;;;;;;13.78;7.90;;;;;;;8.36;100.00;99300.23;1697254;84;21181;-65
2023/11/16 04:30:34;;;;;;;12.58;6.12;;;;;;;8.34;100.00;99299.08;1697177;84;21030;-65
2023/11/16 04:33:03;;;;;;;13.20;6.65;;;;;;;8.35;100.00;99302.64;1697224;84;21031;-66
2023/11/16 04:35:33;;;;;;;11.95;5.22;;;;;;;8.32;100.00;99301.67;1697224;84;21030;-65
2023/11/16 04:38:04;;;;;;;6.92;4.67;;;;;;;8.30;100.00;99299.15;1697188;84;21081;-64
2023/11/16 04:40:33;;;;;;;7.53;4.20;;;;;;;8.30;100.00;99297.78;1697062;84;21030;-65
2023/11/16 04:43:02;;;;;;;8.63;5.50;;;;;;;8.28;100.00;99300.72;1671731;84;21039;-65
2023/11/16 04:45:32;;;;;;;8.68;4.90;;;;;;;8.28;100.00;99306.70;1697133;84;21062;-65
2023/11/16 04:48:01;;;;;;;10.82;4.65;;;;;;;8.29;100.00;99305.66;1697514;83;21189;-65
2023/11/16 04:50:31;;;;;;;6.60;4.72;;;;;;;8.30;100.00;99306.50;1698646;84;21082;-65
2023/11/16 04:53:01;;;;;;;5.10;3.60;;;;;;;8.30;100.00;99320.98;1679336;84;21058;-65
2023/11/16 04:55:30;;;;;;;5.80;3.90;;;;;;;8.28;100.00;99310.27;1698458;84;21109;-64
2023/11/16 04:57:59;;;;;;;6.00;3.77;;;;;;;8.26;99.83;99312.38;1698658;84;21073;-65
2023/11/16 05:00:27;;;;;;;5.30;3.45;;;;;;;8.21;99.29;99318.14;1698493;84;21130;-65
2023/11/16 05:02:56;;;;;;;3.85;2.98;;;;;;;8.19;99.23;99324.33;1698627;84;21082;-66
2023/11/16 05:05:25;;;;;;;4.17;2.70;;;;;;;8.17;98.86;99322.34;1698602;84;21066;-65
2023/11/16 05:07:57;;;;;;;5.47;2.95;;;;;;;8.17;98.67;99323.70;1698403;84;21524;-64
2023/11/16 05:10:25;;;;;;;5.03;2.98;;;;;;;8.15;98.50;99318.45;1698409;84;21110;-66
2023/11/16 05:12:54;;;;;;;7.80;2.65;;;;;;;8.15;98.21;99323.07;1678915;84;21542;-65
2023/11/16 05:15:24;;;;;;;5.17;2.75;;;;;;;8.14;97.94;99329.05;1698444;84;21086;-66
2023/11/16 05:17:52;;;;;;;4.33;2.98;;;;;;;8.11;97.65;99338.17;1698451;84;21070;-66
2023/11/16 05:20:21;;;;;;;3.67;2.80;;;;;;;8.10;97.59;99340.59;1698620;84;21082;-66
2023/11/16 05:22:50;;;;;;;3.83;2.90;;;;;;;8.09;97.37;99337.55;1698449;84;20987;-66
2023/11/16 05:25:19;;;;;;;5.25;3.20;;;;;;;8.09;97.29;99343.00;1698452;84;21070;-64
2023/11/16 05:27:48;;;;;;;4.65;3.10;;;;;;;8.07;96.97;99350.03;1698645;84;21070;-65
2023/11/16 05:30:17;;;;;;;4.35;3.35;;;;;;;8.07;97.01;99347.83;1698451;84;21506;-66
2023/11/16 05:32:46;;;;;;;5.47;3.02;;;;;;;8.07;96.78;99349.19;1698482;84;21539;-65
2023/11/16 05:35:15;;;;;;;7.25;4.17;;;;;;;8.06;96.62;99354.33;1698397;84;21085;-66
2023/11/16 05:37:43;;;;;;;5.12;3.30;;;;;;;8.06;96.58;99355.17;1698394;84;21026;-66
2023/11/16 05:40:12;;;;;;;4.33;3.35;;;;;;;8.07;96.33;99360.09;1698581;84;21062;-65
2023/11/16 05:42:41;;;;;;;5.15;3.60;;;;;;;8.06;96.04;99362.52;1698410;84;21066;-65
2023/11/16 05:45:12;;;;;;;5.22;2.67;;;;;;;8.05;96.10;99373.95;1679043;84;21058;-65
2023/11/16 05:47:42;;;;;;;4.28;2.77;;;;;;;8.07;95.85;99376.47;1698318;84;21248;-65
2023/11/16 05:50:11;;;;;;;4.30;2.52;;;;;;;8.05;95.58;99369.86;1698409;84;21081;-65
2023/11/16 05:52:39;;;;;;;5.45;4.15;;;;;;;8.04;95.14;99374.99;1700388;84;21494;-65
2023/11/16 05:55:09;;;;;;;3.47;2.40;;;;;;;8.00;94.17;99375.09;1698332;84;21066;-65
2023/11/16 05:57:41;;;;;;;3.80;2.67;;;;;;;7.95;93.74;99379.80;1700271;84;21102;-66
2023/11/16 06:00:11;;;;;;;5.20;2.70;;;;;;;7.92;93.21;99380.73;1700231;84;21102;-66
2023/11/16 06:02:40;;;;;;;3.35;2.50;;;;;;;7.87;93.00;99381.34;1698579;84;21003;-66
2023/11/16 06:05:09;;;;;;;3.72;2.40;;;;;;;7.86;92.76;99385.13;1698448;84;21066;-66
2023/11/16 06:07:39;;;;;;;4.55;2.87;;;;;;;7.84;92.55;99382.28;1698438;84;21054;-65
2023/11/16 06:10:10;;;;;;;3.37;2.52;;;;;;;7.83;92.51;99390.98;1698438;83;21038;-67
2023/11/16 06:12:39;;;;;;;2.70;2.05;;;;;;;7.84;92.29;99387.73;1698377;84;21482;-66
2023/11/16 06:15:10;;;;;;;2.58;1.82;;;;;;;7.81;91.69;99390.87;1698617;84;21057;-66
2023/11/16 06:17:41;;;;;;;4.50;2.08;;;;;;;7.77;91.51;99391.77;1698138;84;21101;-65
2023/11/16 06:20:12;;;;;;;3.05;1.47;;;;;;;7.73;90.84;99392.39;1700143;84;21097;-65
2023/11/16 06:22:41;;;;;;;2.15;1.60;;;;;;;7.70;90.39;99395.00;1698568;84;21062;-66
2023/11/16 06:25:11;;;;;;;3.35;1.77;;;;;;;7.70;90.25;99399.61;1698203;84;21062;-66
2023/11/16 06:27:40;;;;;;;2.45;1.50;;;;;;;7.70;90.01;99393.63;1698369;84;21462;-67
2023/11/16 06:30:12;;;;;;;3.37;2.00;;;;;;;7.68;88.59;99402.54;1700370;84;21050;-65
2023/11/16 06:32:40;;;;;;;1.57;1.10;;;;;;;7.62;87.42;99399.27;1698254;84;21508;-65
2023/11/16 06:35:10;;;;;;;4.78;1.72;;;;;;;7.55;86.76;99407.94;1698354;84;21145;-65
2023/11/16 06:37:38;;;;;;;2.00;1.40;;;;;;;7.50;86.43;99404.97;1698299;84;21113;-66
2023/11/16 06:40:09;;;;;;;1.72;1.27;;;;;;;7.46;86.30;99409.98;1698610;83;21054;-64
2023/11/16 06:42:37;;;;;;;2.10;1.25;;;;;;;7.44;86.09;99405.78;1698436;84;21140;-66
2023/11/16 06:45:08;;;;;;;3.35;1.20;;;;;;;7.44;86.14;99403.91;1698523;84;21533;-65
2023/11/16 06:47:37;;;;;;;2.92;1.30;;;;;;;7.46;86.19;99405.91;1697917;83;21078;-66
2023/11/16 06:50:08;;;;;;;1.60;0.93;;;;;;;7.49;86.06;99406.86;1698427;84;21074;-66
2023/11/16 06:52:36;;;;;;;3.70;1.65;;;;;;;7.49;85.38;99409.59;1698295;84;21097;-66
2023/11/16 06:55:10;;;;;;;2.65;1.62;;;;;;;7.47;85.47;99409.47;1698544;84;21085;-66
2023/11/16 06:57:39;;;;;;;3.75;0.90;;;;;;;7.49;85.48;99415.55;1698168;84;21078;-66
2023/11/16 07:00:15;;;;;;;1.40;0.80;;;;;;;7.47;84.79;99401.30;1679133;84;21026;-65
2023/11/16 07:02:44;;;;;;;1.32;0.90;;;;;;;7.42;84.37;99420.97;1698366;84;21305;-65
2023/11/16 07:05:14;;;;;;;3.37;1.10;;;;;;;7.40;84.42;99416.77;1698288;83;21081;-65
2023/11/16 07:07:45;;;;;;;3.77;1.10;;;;;;;7.38;84.31;99420.22;1698085;84;21105;-67
2023/11/16 07:10:15;;;;;;;5.35;1.10;;;;;;;7.38;84.21;99427.03;1698348;84;21006;-67
2023/11/16 07:12:45;;;;;;;5.50;1.05;;;;;;;7.37;83.74;99424.83;1698227;84;21074;-66
2023/11/16 07:15:15;;;;;;;3.17;1.27;;;;;;;7.34;84.14;99417.05;1698496;84;21043;-66
2023/11/16 07:17:43;;;;;;;2.05;1.00;;;;;;;7.37;84.21;99415.81;1698164;84;21446;-67
2023/11/16 07:20:13;;;;;;;3.00;0.80;;;;;;;7.37;84.34;99425.34;1698487;84;21053;-66
2023/11/16 07:22:41;;;;;;;2.67;1.47;;;;;;;7.39;84.34;99422.73;1698672;84;21062;-66
2023/11/16 07:25:10;;;;;;;5.30;1.60;;;;;;;7.39;84.36;99423.27;1698377;84;21066;-66
2023/11/16 07:27:39;;;;;;;2.60;1.10;;;;;;;7.41;84.44;99432.08;1698436;84;21006;-66
2023/11/16 07:30:10;;;;;;;4.15;1.40;;;;;;;7.38;84.09;99430.59;1698563;84;21101;-66
2023/11/16 07:32:40;;;;;;;2.42;1.30;;;;;;;7.34;83.97;99432.03;1698569;84;21086;-66
2023/11/16 07:35:15;;;;;;;4.00;1.85;;;;;;;7.31;83.82;99444.18;1698424;83;21034;-66
2023/11/16 07:37:48;;;;;;;1.55;0.82;;;;;;;7.29;84.02;99442.70;1698328;84;21077;-66
2023/11/16 07:40:15;;;;;;;1.95;0.82;;;;;;;7.27;83.91;99452.44;1698501;84;21097;-66
2023/11/16 07:42:46;;;;;;;6.45;1.37;;;;;;;7.20;83.48;99463.81;1698604;83;21043;-66
2023/11/16 07:45:16;;;;;;;1.17;0.70;;;;;;;7.10;83.37;99457.84;1698441;83;21514;-66
2023/11/16 07:47:47;;;;;;;4.47;1.10;;;;;;;7.00;83.61;99473.69;1698447;84;21133;-65
2023/11/16 07:50:15;;;;;;;4.00;1.25;;;;;;;6.95;84.00;99479.72;1697063;83;21109;-66
2023/11/16 07:52:44;;;;;;;3.62;1.40;;;;;;;6.94;84.17;99482.64;1696920;84;21098;-65
2023/11/16 07:55:18;;;;;;;3.17;1.10;;;;;;;6.89;84.19;99496.00;1697172;84;21027;-66
2023/11/16 07:57:49;;;;;;;4.15;0.75;;;;;;;6.82;84.23;99500.03;1672010;84;21094;-67
2023/11/16 08:00:31;;;;;;;2.72;1.10;;;;;;;6.71;83.94;99503.80;1697022;84;21175;-66
2023/11/16 08:05:51;;;;;;;1.80;0.90;;;;;;;6.57;84.07;99500.10;1675544;84;21514;-65
2023/11/16 08:08:20;;;;;;;0.90;0.70;;;;;;;6.54;83.76;99503.20;1671811;84;21075;-67
2023/11/16 08:10:49;;;;;;;3.55;2.00;;;;;;;6.52;83.62;99511.56;1697113;84;21145;-65
2023/11/16 08:13:18;;;;;;;1.27;0.60;;;;;;;6.53;83.00;99513.25;1671757;84;21588;-66
2023/11/16 08:15:52;;;;;;;3.58;1.30;;;;;;;6.51;82.08;99507.16;1696947;84;21104;-65
2023/11/16 08:18:18;;;;;;;3.15;1.60;;;;;;;6.48;82.02;99522.48;1696744;84;21085;-66
2023/11/16 08:20:48;;;;;;;6.90;4.20;;;;;;;6.48;81.87;99525.72;1671788;84;21511;-66
2023/11/16 08:23:18;;;;;;;4.15;2.00;;;;;;;6.46;81.90;99532.72;1696920;84;21038;-67
2023/11/16 08:25:50;;;;;;;4.87;1.60;;;;;;;6.45;81.43;99537.83;1696991;84;21034;-67
2023/11/16 08:28:19;;;;;;;8.55;2.75;;;;;;;6.41;81.65;99536.53;1672018;84;21078;-66
2023/11/16 08:30:48;;;;;;;2.33;1.35;;;;;;;6.45;81.90;99542.43;1697114;83;21039;-67
2023/11/16 08:33:17;;;;;;;1.67;0.90;;;;;;;6.49;81.85;99550.53;1672215;84;21070;-66
2023/11/16 08:35:46;;;;;;;5.70;1.17;;;;;;;6.50;81.59;99554.45;1671842;84;21086;-66
2023/11/16 08:38:15;;;;;;;4.60;1.72;;;;;;;6.47;81.51;99552.61;1672061;84;21046;-66
2023/11/16 08:40:44;;;;;;;3.15;1.35;;;;;;;6.43;81.22;99563.03;1671573;84;21039;-66
2023/11/16 08:43:12;;;;;;;4.10;2.30;;;;;;;6.41;81.06;99552.86;1697058;84;21050;-66
2023/11/16 08:45:42;;;;;;;4.78;1.20;;;;;;;6.39;81.06;99556.28;1696836;84;21192;-67
2023/11/16 08:48:16;;;;;;;2.00;0.90;;;;;;;6.36;80.34;99553.44;1672169;84;21074;-66
2023/11/16 08:50:43;;;;;;;2.25;1.27;;;;;;;6.33;79.07;99550.25;1696757;83;21213;-67
2023/11/16 08:53:13;;;;;;;1.67;0.65;;;;;;;6.27;78.57;99557.81;1697232;84;21074;-66
2023/11/16 08:55:45;;;;;;;2.17;0.93;;;;;;;6.22;78.30;99552.95;1697027;84;21105;-66
2023/11/16 08:58:14;;;;;;;1.37;1.02;;;;;;;6.20;77.63;99569.13;1698461;83;21066;-68
2023/11/16 09:00:45;;;;;;;2.17;1.10;;;;;;;6.17;77.83;99566.80;1705872;82;21055;-68
2023/11/16 09:03:13;;;;;;;2.20;1.20;;;;;;;6.16;78.12;99563.23;1706547;83;21470;-67
2023/11/16 09:05:43;;;;;;;2.15;1.25;;;;;;;6.22;80.02;99573.34;1725830;82;21023;-66
2023/11/16 09:08:13;;;;;;;1.90;0.82;;;;;;;6.24;78.85;99583.52;1697165;83;21468;-66
2023/11/16 09:10:43;;;;;;;6.22;1.65;;;;;;;6.19;77.56;99577.81;1688847;85;21977;-65
2023/11/16 09:13:12;;;;;;;4.25;1.15;;;;;;;6.13;77.24;99580.44;1692077;83;21051;-66
2023/11/16 09:15:43;;;;;;;2.98;1.57;;;;;;;6.11;77.50;99592.03;1713069;83;21496;-66
2023/11/16 09:18:13;;;;;;;1.98;1.17;;;;;;;6.06;77.03;99585.80;1688754;85;21036;-67
2023/11/16 09:20:46;;;;;;;5.47;1.80;;;;;;;5.97;77.21;99599.16;1665949;85;21075;-66
2023/11/16 09:23:16;;;;;;;3.47;2.17;;;;;;;5.91;77.90;99598.03;1688860;85;21079;-66
2023/11/16 09:25:45;;;;;;;3.20;1.70;;;;;;;5.86;78.37;99596.36;1665691;85;21600;-66
2023/11/16 09:28:15;;;;;;;2.42;1.60;;;;;;;5.80;78.47;99590.28;1688776;85;21110;-66
2023/11/16 09:30:43;;;;;;;5.55;2.70;;;;;;;5.68;78.87;99599.41;1688571;85;21003;-66
2023/11/16 09:33:13;;;;;;;3.83;2.00;;;;;;;5.60;79.80;99598.66;1683834;83;21130;-66
2023/11/16 09:35:41;;;;;;;3.02;1.85;;;;;;;5.55;80.51;99585.62;1725730;82;21085;-66
2023/11/16 09:38:10;;;;;;;2.90;1.70;;;;;;;5.49;81.39;99597.75;1725651;83;21038;-67
2023/11/16 09:40:41;;;;;;;2.80;1.40;;;;;;;5.45;82.12;99585.56;1726100;83;21031;-66
2023/11/16 09:43:16;;;;;;;2.85;1.47;;;;;;;5.35;82.91;99589.39;1725524;82;21106;-67
2023/11/16 09:45:48;;;;;;;1.77;1.32;;;;;;;5.36;83.77;99592.95;1725653;82;21315;-66
2023/11/16 09:48:24;;;;;;;2.15;1.40;;;;;;;5.36;84.22;99598.38;1725670;83;21070;-66
2023/11/16 09:50:53;;;;;;;1.98;1.10;;;;;;;5.24;84.36;99587.11;1740419;82;21506;-66
2023/11/16 09:53:26;;;;;;;2.33;1.42;;;;;;;5.19;85.18;99599.00;1742784;82;21607;-69
2023/11/16 09:56:04;;;;;;;2.37;1.20;;;;;;;5.23;87.01;99594.93;1742810;82;21118;-69
2023/11/16 09:58:28;;;;;;;2.33;1.55;;;;;;;5.23;87.11;99592.73;1742718;82;21526;-69
2023/11/16 10:00:59;;;;;;;2.37;1.67;;;;;;;5.21;87.06;99591.55;1742928;82;21114;-71
2023/11/16 10:03:36;;;;;;;2.05;1.10;;;;;;;5.18;87.53;99597.31;1724484;82;21118;-70
2023/11/16 10:06:06;;;;;;;1.35;1.00;;;;;;;5.17;87.39;99588.00;1743006;82;21043;-71
2023/11/16 10:08:40;;;;;;;3.85;1.30;;;;;;;5.12;86.99;99598.05;1670096;86;21106;-70
2023/11/16 10:11:10;;;;;;;1.67;1.37;;;;;;;5.05;87.36;99602.00;1651875;86;21479;-68
2023/11/16 10:13:39;;;;;;;2.22;1.10;;;;;;;5.04;88.04;99602.19;1672023;85;21134;-66
2023/11/16 10:16:11;;;;;;;2.42;1.12;;;;;;;5.06;88.43;99602.84;1670307;86;21101;-68
2023/11/16 10:18:40;;;;;;;2.95;1.40;;;;;;;5.08;88.54;99596.21;1670119;86;21165;-68
2023/11/16 10:21:09;;;;;;;2.50;1.52;;;;;;;5.12;88.67;99598.56;1670255;86;21047;-67
2023/11/16 10:23:38;;;;;;;2.83;1.32;;;;;;;5.15;88.93;99596.84;1628223;86;21110;-67
2023/11/16 10:26:11;;;;;;;2.52;1.52;;;;;;;5.18;89.09;99597.31;1670142;86;21540;-68
2023/11/16 10:28:40;;;;;;;2.60;1.50;;;;;;;5.18;88.83;99599.19;1670097;86;21137;-69
2023/11/16 10:31:11;;;;;;;3.72;1.60;;;;;;;5.17;89.09;99607.84;1670021;86;21093;-69
2023/11/16 10:33:43;;;;;;;1.90;1.25;;;;;;;5.17;89.35;99611.08;1670089;86;21532;-69
2023/11/16 10:36:12;;;;;;;1.95;1.30;;;;;;;5.14;89.33;99610.08;1672076;84;21074;-69
2023/11/16 10:38:41;;;;;;;3.30;1.42;;;;;;;5.08;89.02;99604.36;1670117;86;21138;-67
2023/11/16 10:41:14;;;;;;;2.62;1.50;;;;;;;5.04;89.11;99611.69;1670205;86;21078;-69
2023/11/16 10:43:44;;;;;;;2.45;1.65;;;;;;;4.99;89.05;99614.10;1670040;86;21579;-69
2023/11/16 10:46:13;;;;;;;3.42;1.70;;;;;;;4.95;89.08;99616.84;1670168;86;21058;-67
2023/11/16 10:48:42;;;;;;;2.37;1.60;;;;;;;4.91;89.23;99615.52;1670126;86;21046;-69
2023/11/16 10:51:11;;;;;;;4.60;2.25;;;;;;;4.87;89.46;99620.98;1668782;85;21117;-68
2023/11/16 10:53:40;;;;;;;4.53;2.27;;;;;;;4.88;89.82;99622.16;1668567;85;21113;-68
2023/11/16 10:56:11;;;;;;;2.33;1.52;;;;;;;4.89;89.85;99628.42;1633815;87;21056;-68
2023/11/16 10:58:42;;;;;;;3.50;1.77;;;;;;;4.88;89.92;99626.22;1668860;86;21038;-67
2023/11/16 11:01:14;;;;;;;2.70;1.40;;;;;;;4.89;89.89;99628.42;1634131;88;21538;-68
2023/11/16 11:03:46;;;;;;;2.55;1.40;;;;;;;4.86;89.53;99628.78;1668749;86;21058;-69
2023/11/16 11:06:25;;;;;;;6.03;1.30;;;;;;;4.88;89.93;99626.73;1638461;85;21518;-69
2023/11/16 11:08:59;;;;;;;1.50;1.00;;;;;;;4.92;89.82;99629.42;1725786;83;21483;-68
2023/11/16 11:11:28;;;;;;;1.98;0.98;;;;;;;4.83;88.42;99625.92;1700655;83;21052;-68
2023/11/16 11:13:57;;;;;;;1.67;1.12;;;;;;;4.81;88.58;99626.61;1726007;82;21039;-69
2023/11/16 11:16:29;;;;;;;2.05;1.50;;;;;;;4.80;88.70;99629.51;1725688;83;21477;-68
2023/11/16 11:18:58;;;;;;;1.25;0.82;;;;;;;4.78;88.59;99631.89;1725529;83;21026;-68
2023/11/16 11:21:28;;;;;;;2.55;1.30;;;;;;;4.80;88.33;99639.00;1725756;82;21470;-70
2023/11/16 11:24:05;;;;;;;1.82;1.02;;;;;;;4.77;88.41;99628.00;1725755;83;21552;-70
2023/11/16 11:26:49;;;;;;;2.08;1.00;;;;;;;4.78;88.24;99637.31;1725813;83;21038;-70
2023/11/16 11:29:25;;;;;;;2.25;1.30;;;;;;;4.78;87.99;99637.31;1725754;83;21454;-71
2023/11/16 11:32:03;;;;;;;1.42;1.07;;;;;;;4.78;87.77;99637.31;1725752;82;21082;-70
2023/11/16 11:34:36;;;;;;;1.55;0.80;;;;;;;4.77;87.53;99646.48;1725642;83;21466;-70
2023/11/16 11:37:10;;;;;;;2.37;0.90;;;;;;;4.75;87.32;99633.60;1725866;83;21042;-68
2023/11/16 11:39:46;;;;;;;1.98;1.10;;;;;;;4.73;87.32;99638.88;1725923;82;21026;-70
2023/11/16 11:42:24;;;;;;;2.08;1.20;;;;;;;4.72;87.63;99641.25;1725900;83;21031;-70
2023/11/16 11:44:53;;;;;;;2.02;1.02;;;;;;;4.74;87.72;99644.13;1726078;82;21459;-70
2023/11/16 11:47:28;;;;;;;2.20;0.90;;;;;;;4.76;87.65;99646.66;1725660;83;21169;-68
2023/11/16 11:49:56;;;;;;;1.77;1.02;;;;;;;4.75;87.10;99641.74;1742468;81;21074;-68
2023/11/16 11:52:25;;;;;;;1.80;1.17;;;;;;;4.72;87.08;99645.33;1709702;83;21460;-70